Capon Springs, WV (26823)

2:12 AM EST on February 26, 2017 (GMT -0500)
Wilde Acres, Va. | | Change Station

Elev 1280 ft 39.16 °N, 78.39 °W | Updated 9 seconds ago

Overcast
Overcast
31.8 °F
Feels Like 25 °F
N
8.1
Wind Variable Wind from ESE
Gusts 15.0 mph

Today
High -- | Low -- °F
--% Chance of Precip.
Yesterday
High -- | Low -- °F
Precip. -- in
Pressure 29.93 in
Visibility 10.0 miles
Clouds Overcast 4200 ft
Windchill 25 °F
Dew Point 20 °F
Humidity 60%
Rainfall 0.00 in
Snow Depth Not available.
6:50 AM 6:03 PM
Waning Crescent, 0% visible
METAR KOKV 260655Z AUTO 31015G21KT 10SM OVC042 01/M07 A2993 RMK AO2
Pressure 29.93 in
Visibility 10.0 miles
Clouds Overcast 4200 ft
Windchill 25 °F
Dew Point 20 °F
Humidity 60%
Rainfall 0.00 in
Snow Depth Not available.
6:50 AM 6:03 PM
Waning Crescent, 0% visible
METAR KOKV 260655Z AUTO 31015G21KT 10SM OVC042 01/M07 A2993 RMK AO2

Get Your Daily Forecast Email!

Thanks for signing up!

Be on the lookout for a verification email in your inbox.

You'll start receiving the daily forecast at 8 AM.

×

10-Day Weather Forecast

Almanac

Astronomy

Feb. 26, 2017 Rise Set
Actual Time
Civil Twilight
Nautical Twilight
Astronomical Twilight
Moon
Length of Visible Light
Length of Day
Tomorrow will be .
, % of the Moon is Illuminated

Today's Extremes

State Highs State Lows

Community

WunderPhotos

Upload Photos

1,962,540 photos uploaded!

WunderBlog® & News

Nearby

Air Quality

  Air Quality AQ Index Pollutant
Not available.

Snow Depth

Station Depth Elevation

Earthquake Activity

City Distance Mag. Time & Date
Minimum magnitude displayed is 2.5.

Coastal Water Temperatures

Place Temperature

Stations

Nearby Weather Stations

Station Location Temp. Windchill Dew Point Humidity Wind Precip. Elev Updated Type
                   

Watches & Warnings

There are currently no watches in effect.